Details From SKBQ - Ernesto Cortissoz
To SKSP - GUSTAVO ROJAS PINILLA
Flight Number -
Tags generated
Created
Modified
Stats Distance 420 nm / 779 km
Max Altitude 34,000 ft / 10,363 m
Waypoints 8
Social Downloads 10
Likes 0
Share VATSIM

Download

Looking for another format? Having issues loading an existing format? Contact us
Advertisement - Login to hide

Notes

Basic altitude profile: - Ascent Rate: 2500ft/min - Ascent Speed: 250kts - Cruise Altitude: 35000ft - Cruise Speed: 420kts - Descent Rate: 1500ft/min - Descent Speed: 250kts Options: - Use NATs: yes - Use PACOTS: yes - Use low airways: yes - Use high airways: yes

Route

SKBQ VARON A552 ESKOR UA552 TIMRO A552 SPP SKSP

ID Type Via Altitude Latitude Longitude Leg Dist Tot Dist Heading (true) Name
O SKBQ APT - 0 ft / 0 m 10.88959˚ -74.78082˚ - 0 nm - Ernesto Cortissoz
VARON FIX - 20,500 ft / 6,248 m 11.03750˚ -75.74444˚ 57 nm 57 nm 279° / 279° -
ESKOR FIX A552 (AWY-LO) 24,500 ft / 7,468 m 11.37472˚ -77.00000˚ 76 nm 134 nm 285° / 285° -
ALPON FIX UA552 (AWY-HI) 34,000 ft / 10,363 m 11.46783˚ -77.41642˚ 25 nm 159 nm 283° / 283° -
TIMRO FIX UA552 (AWY-HI) 34,000 ft / 10,363 m 11.80114˚ -78.69978˚ 78 nm 237 nm 285° / 285° -
GAVON FIX A552 (AWY-LO) 8,600 ft / 2,621 m 12.41833˚ -81.04417˚ 142 nm 380 nm 285° / 285° -
SPP VOR A552 (AWY-LO) 2,500 ft / 762 m 12.58250˚ -81.70500˚ 39 nm 419 nm 284° / 284° SAN ANDRES VOR-DME
O SKSP APT - 0 ft / 0 m 12.58359˚ -81.71119˚ 0 nm 420 nm 280° / 280° GUSTAVO ROJAS PINILLA

Altitude Profile

Advertisement - Login to hide

Weather


0- 5 10 15 20 25 30 35+ Temperature / ° C

Clouds and Precipitation
Forecast for 2017-12-11 18:00 UTC. Updated 2 hours ago

Ground ~20,000 ft ~40,000 ft Winds

SKBQ

Details ICAO SKBQ (BAQ)
Name Ernesto Cortissoz
Region Colombia
Timezone America/Bogota (UTC-5.0)
Stats Elevation 98 ft / 30 m (AMSL)
Location 10.889589° -74.780820°
Runways 1
Magnetic Variation 7.726° W

METAR

SKBQ 111800Z 31004KT 9999 SCT015TCU SCT200 31/24 A2983 RMK TCU/SW

Decode

TAF

Not found

Departure Runways

ID Width Length Bearing (true) Bearing (mag) Surface Threshold Offset Overrun Length
05 148 ft / 45 m 9,863 ft / 3,006 m 40.09° 47.82° Concrete 0 ft / 0 m 105 ft / 32 m
23 148 ft / 45 m 9,863 ft / 3,006 m 220.09° 227.82° Concrete 0 ft / 0 m 0 ft / 0 m

SKSP

Details ICAO SKSP (ADZ)
Name GUSTAVO ROJAS PINILLA
Region Colombia
Timezone Unknown (UTC+0.0)
Stats Elevation 19 ft / 6 m (AMSL)
Location 12.583595° -81.711191°
Runways 1
Magnetic Variation 3.676° W

METAR

SKSP 111800Z 36019G32KT 320V030 7000 -DZ SCT010 OVC070 26/23 A2994 RERA RMK WS/06

Decode

TAF

Not found

Destination Runways

ID Width Length Bearing (true) Bearing (mag) Surface Threshold Offset Overrun Length
06 148 ft / 45 m 7,815 ft / 2,382 m 59.54° 63.22° Asphalt 0 ft / 0 m 0 ft / 0 m
24 148 ft / 45 m 7,815 ft / 2,382 m 239.55° 243.23° Asphalt 0 ft / 0 m 180 ft / 55 m

Popular Alternatives